createdAt,value
2023-02-23T00:01:37.350Z,5.7
2023-02-23T00:03:42.763Z,5.5
2023-02-23T00:05:33.981Z,5.7
2023-02-23T00:07:36.629Z,5.8
2023-02-23T00:11:36.828Z,5.6
2023-02-23T00:13:34.013Z,5.4
2023-02-23T00:17:34.007Z,5.9
2023-02-23T00:19:36.836Z,5.7
2023-02-23T00:21:43.848Z,5.7
2023-02-23T00:23:33.986Z,5.8
2023-02-23T00:29:35.457Z,5.7
2023-02-23T00:31:35.347Z,5.8
2023-02-23T00:33:43.620Z,6
2023-02-23T00:35:36.772Z,6.1
2023-02-23T00:37:34.018Z,6.1
2023-02-23T00:41:33.994Z,6
2023-02-23T00:43:38.957Z,6
2023-02-23T00:45:43.536Z,6
2023-02-23T00:47:37.336Z,6.1
2023-02-23T00:49:34.019Z,6.2
2023-02-23T00:51:42.668Z,6.2
2023-02-23T00:53:37.599Z,6.2
2023-02-23T00:55:37.988Z,6.3
2023-02-23T00:59:34.026Z,6.3
2023-02-23T01:01:34.530Z,6.3
2023-02-23T01:05:37.688Z,6.3
2023-02-23T01:07:35.278Z,6.2
2023-02-23T01:11:34.052Z,6.3
2023-02-23T01:13:42.639Z,6.2
2023-02-23T01:17:34.018Z,6.2
2023-02-23T01:19:37.912Z,6.3
2023-02-23T01:21:44.144Z,6.3
2023-02-23T01:23:34.018Z,6.2
2023-02-23T01:25:35.837Z,6.2
2023-02-23T01:29:36.811Z,6.1
2023-02-23T01:31:40.353Z,6.1
2023-02-23T01:35:37.319Z,6.1
2023-02-23T01:37:35.865Z,6.1
2023-02-23T01:39:43.382Z,6.1
2023-02-23T01:41:39.847Z,6
2023-02-23T01:43:34.029Z,6.1
2023-02-23T01:45:42.995Z,6.1
2023-02-23T01:47:37.603Z,6.1
2023-02-23T01:49:34.024Z,6.1
2023-02-23T01:53:34.023Z,6.1
2023-02-23T01:55:35.284Z,6.1
2023-02-23T01:59:34.063Z,6.2
2023-02-23T02:01:40.461Z,6.3
2023-02-23T02:03:43.043Z,6.3
2023-02-23T02:05:34.454Z,6.3
2023-02-23T02:07:40.462Z,6.3
2023-02-23T02:11:34.024Z,6.3
2023-02-23T02:13:35.367Z,6.3
2023-02-23T02:17:37.368Z,6.3
2023-02-23T02:23:36.849Z,6.1
2023-02-23T02:25:38.863Z,6
2023-02-23T02:29:39.344Z,6
2023-02-23T02:31:37.398Z,6.1
2023-02-23T02:33:41.046Z,6.1
2023-02-23T02:35:42.588Z,6.3
2023-02-23T02:37:34.493Z,6.3
2023-02-23T02:41:37.274Z,6.4
2023-02-23T02:43:34.048Z,6.4
2023-02-23T02:45:43.506Z,6.4
2023-02-23T02:47:34.048Z,6.4
2023-02-23T02:49:40.301Z,6.4
2023-02-23T02:51:42.451Z,6.4
2023-02-23T02:53:39.063Z,6.4
2023-02-23T02:55:40.355Z,6.3
2023-02-23T02:59:34.069Z,6.4
2023-02-23T03:01:35.036Z,6.4
2023-02-23T03:03:42.111Z,6.4
2023-02-23T03:05:39.876Z,6.5
2023-02-23T03:07:39.387Z,6.5
2023-02-23T03:09:43.585Z,6.4
2023-02-23T03:11:34.052Z,6.4
2023-02-23T03:13:34.053Z,6.4
2023-02-23T03:17:34.027Z,6.5
2023-02-23T03:19:42.179Z,6.5
2023-02-23T03:23:40.313Z,6.5
2023-02-23T03:25:39.043Z,6.5
2023-02-23T03:29:42.718Z,6.4
2023-02-23T03:31:36.436Z,6.5
2023-02-23T03:33:42.546Z,6.5
2023-02-23T03:35:38.549Z,6.5
2023-02-23T03:37:37.641Z,6.5
2023-02-23T03:41:34.056Z,6.6
2023-02-23T03:43:34.027Z,6.5
2023-02-23T03:45:43.359Z,6.4
2023-02-23T03:47:37.999Z,6.2
2023-02-23T03:49:37.336Z,6.1
2023-02-23T03:51:43.500Z,6.2
2023-02-23T03:53:40.366Z,6.2
2023-02-23T03:55:34.050Z,6.1
2023-02-23T03:57:43.480Z,6.3
2023-02-23T03:59:37.300Z,6.3
2023-02-23T04:01:39.393Z,6.2
2023-02-23T04:03:42.915Z,6.2
2023-02-23T04:05:34.796Z,6.3
2023-02-23T04:07:36.845Z,6.3
2023-02-23T04:11:37.755Z,6.1
2023-02-23T04:13:39.188Z,6.2
2023-02-23T04:15:41.982Z,6.3
2023-02-23T04:17:34.411Z,6.3
2023-02-23T04:19:40.752Z,6.3
2023-02-23T04:23:34.061Z,6.4
2023-02-23T04:25:36.874Z,6.4
2023-02-23T04:29:34.022Z,6.3
2023-02-23T04:31:39.508Z,6.3
2023-02-23T04:35:34.483Z,6.4
2023-02-23T04:37:40.370Z,6.4
2023-02-23T04:41:37.322Z,6.5
2023-02-23T04:43:38.615Z,6.5
2023-02-23T04:47:37.240Z,6.5
2023-02-23T04:49:34.063Z,6.5
2023-02-23T04:51:43.428Z,6.4
2023-02-23T04:53:34.061Z,6.4
2023-02-23T04:55:38.749Z,6.4
2023-02-23T04:59:34.351Z,6.4
2023-02-23T05:01:34.679Z,6.3
2023-02-23T05:05:37.707Z,6.5
2023-02-23T05:07:34.080Z,6.4
2023-02-23T05:09:41.307Z,6.5
2023-02-23T05:11:39.629Z,6.6
2023-02-23T05:13:37.347Z,6.7
2023-02-23T05:15:43.510Z,6.6
2023-02-23T05:17:36.252Z,6.6
2023-02-23T05:19:40.962Z,6.6
2023-02-23T05:23:35.333Z,6.6
2023-02-23T05:25:34.040Z,6.6
2023-02-23T05:27:39.991Z,6.6
2023-02-23T05:29:34.040Z,6.4
2023-02-23T05:31:41.336Z,6.5
2023-02-23T05:33:41.578Z,6.5
2023-02-23T05:35:37.769Z,6.5
2023-02-23T05:37:37.770Z,6.5
2023-02-23T05:41:34.054Z,6.5
2023-02-23T05:43:34.068Z,6.5
2023-02-23T05:47:36.216Z,6.5
2023-02-23T05:49:39.901Z,6.5
2023-02-23T05:53:37.364Z,6.5
2023-02-23T05:55:36.301Z,6.5
2023-02-23T06:01:40.871Z,6.5
2023-02-23T06:05:35.417Z,6.5
2023-02-23T06:07:34.055Z,6.6
2023-02-23T06:11:35.958Z,6.4
2023-02-23T06:13:34.049Z,6.5
2023-02-23T06:15:35.101Z,6.6
2023-02-23T06:17:37.098Z,6.5
2023-02-23T06:19:34.088Z,6.5
2023-02-23T06:23:36.941Z,6.5
2023-02-23T06:25:41.425Z,6.5
2023-02-23T06:29:35.338Z,6.5
2023-02-23T06:31:40.550Z,6.4
2023-02-23T06:35:36.282Z,6.5
2023-02-23T06:37:34.063Z,6.6
2023-02-23T06:41:40.880Z,6.6
2023-02-23T06:43:38.660Z,6.6
2023-02-23T06:47:37.801Z,6.6
2023-02-23T06:49:34.086Z,6.7
2023-02-23T06:51:43.008Z,6.6
2023-02-23T06:53:34.055Z,6.8
2023-02-23T06:55:34.103Z,6.8
2023-02-23T06:59:34.085Z,6.8
2023-02-23T07:01:37.653Z,6.9
2023-02-23T07:05:34.053Z,7
2023-02-23T07:07:37.893Z,6.9
2023-02-23T07:09:43.115Z,6.9
2023-02-23T07:11:37.801Z,7.2
2023-02-23T07:13:35.856Z,7.2
2023-02-23T07:17:35.334Z,7.3
2023-02-23T07:19:37.353Z,7.4
2023-02-23T07:21:43.000Z,7.4
2023-02-23T07:23:35.884Z,7.4
2023-02-23T07:25:34.131Z,7.5
2023-02-23T07:29:42.805Z,7.5
2023-02-23T07:31:37.874Z,7.5
2023-02-23T07:33:43.164Z,7.6
2023-02-23T07:35:36.200Z,7.7
2023-02-23T07:37:34.048Z,7.7
2023-02-23T07:41:34.045Z,7.8
2023-02-23T07:43:35.998Z,7.8
2023-02-23T07:45:44.985Z,7.9
2023-02-23T07:47:34.087Z,7.9
2023-02-23T07:49:34.094Z,8
2023-02-23T07:53:35.886Z,8
2023-02-23T07:55:34.057Z,8.1
2023-02-23T07:59:40.883Z,8.3
2023-02-23T08:01:41.953Z,8.4
2023-02-23T08:03:42.686Z,8.4
2023-02-23T08:05:34.079Z,8.3
2023-02-23T08:07:38.650Z,8.3
2023-02-23T08:09:42.718Z,8.5
2023-02-23T08:11:37.225Z,8.5
2023-02-23T08:13:35.840Z,8.5
2023-02-23T08:15:43.051Z,8.5
2023-02-23T08:17:35.372Z,8.6
2023-02-23T08:19:34.141Z,8.8
2023-02-23T08:21:44.051Z,8.8
2023-02-23T08:23:35.378Z,8.8
2023-02-23T08:25:37.819Z,9
2023-02-23T08:27:42.711Z,9.1
2023-02-23T08:29:34.135Z,9
2023-02-23T08:31:34.304Z,9.1
2023-02-23T08:35:39.576Z,9.1
2023-02-23T08:39:43.662Z,9.3
2023-02-23T08:41:37.889Z,9.5
2023-02-23T08:43:34.162Z,9.7
2023-02-23T08:45:43.533Z,9.7
2023-02-23T08:47:34.244Z,9.7
2023-02-23T08:49:36.989Z,9.9
2023-02-23T08:51:41.179Z,9.8
2023-02-23T08:53:37.472Z,9.9
2023-02-23T08:55:38.160Z,10.1
2023-02-23T08:57:43.172Z,9.9
2023-02-23T08:59:34.153Z,9.9
2023-02-23T09:01:34.191Z,9.9
2023-02-23T09:05:37.501Z,10
2023-02-23T09:07:39.672Z,10.4
2023-02-23T09:09:36.528Z,10
2023-02-23T09:11:39.087Z,9.8
2023-02-23T09:13:34.235Z,9.6
2023-02-23T09:15:41.703Z,9.6
2023-02-23T09:17:37.298Z,9.5
2023-02-23T09:19:34.221Z,9.4
2023-02-23T09:23:37.325Z,9.2
2023-02-23T09:25:34.251Z,9.1
2023-02-23T09:29:34.641Z,9.2
2023-02-23T09:31:40.052Z,9.2
2023-02-23T09:33:37.571Z,9.2
2023-02-23T09:35:40.070Z,9.1
2023-02-23T09:37:42.050Z,9.1
2023-02-23T09:39:40.624Z,9.2
2023-02-23T09:41:35.565Z,9.2
2023-02-23T09:43:37.325Z,9.2
2023-02-23T09:45:37.909Z,9.3
2023-02-23T09:47:34.290Z,9.4
2023-02-23T09:53:37.603Z,9.5
2023-02-23T09:55:43.612Z,9.6
2023-02-23T09:57:38.065Z,9.5
2023-02-23T09:59:34.342Z,9.5
2023-02-23T10:01:38.129Z,9.4
2023-02-23T10:03:38.759Z,9.3
2023-02-23T10:05:34.399Z,9.5
2023-02-23T10:07:34.343Z,9.6
2023-02-23T10:09:38.114Z,9.8
2023-02-23T10:11:35.853Z,9.6
2023-02-23T10:13:38.072Z,9.8
2023-02-23T10:15:34.992Z,9.6
2023-02-23T10:17:36.944Z,9.6
2023-02-23T10:19:40.942Z,9.6
2023-02-23T10:21:43.922Z,9.6
2023-02-23T10:23:38.452Z,9.6
2023-02-23T10:25:41.302Z,9.6
2023-02-23T10:27:37.722Z,9.7
2023-02-23T10:29:41.635Z,9.8
2023-02-23T10:31:37.982Z,9.6
2023-02-23T10:33:43.570Z,9.5
2023-02-23T10:35:37.780Z,9.5
2023-02-23T10:37:37.784Z,9.4
2023-02-23T10:39:39.385Z,9.4
2023-02-23T10:41:38.597Z,9.4
2023-02-23T10:43:38.264Z,9.4
2023-02-23T10:45:38.239Z,9.3
2023-02-23T10:47:38.183Z,9.5
2023-02-23T10:49:41.951Z,9.3
2023-02-23T10:51:38.247Z,9.4
2023-02-23T10:53:37.827Z,9.4
2023-02-23T10:55:34.673Z,9.4
2023-02-23T10:57:44.073Z,9.5
2023-02-23T10:59:34.614Z,9.5
2023-02-23T11:01:46.326Z,9.7
2023-02-23T11:03:37.889Z,10.1
2023-02-23T11:05:34.654Z,10.4
2023-02-23T11:07:38.316Z,10.2
2023-02-23T11:09:46.921Z,10.3
2023-02-23T11:11:38.318Z,10.2
2023-02-23T11:13:38.370Z,10.2
2023-02-23T11:17:38.275Z,10.7
2023-02-23T11:19:37.965Z,11
2023-02-23T11:21:38.181Z,10.9
2023-02-23T11:23:34.835Z,11.2
2023-02-23T11:25:34.719Z,11.1
2023-02-23T11:27:40.597Z,11.3
2023-02-23T11:29:38.077Z,11.2
2023-02-23T11:31:39.351Z,11.3
2023-02-23T11:33:36.093Z,11.1
2023-02-23T11:35:39.642Z,11.2
2023-02-23T11:37:36.534Z,10.9
2023-02-23T11:39:35.273Z,11
2023-02-23T11:41:41.815Z,10.7
2023-02-23T11:43:38.096Z,10.8
2023-02-23T11:45:38.583Z,10.8
2023-02-23T11:49:34.858Z,10.7
2023-02-23T11:51:35.874Z,10.7
2023-02-23T11:53:34.885Z,11.1
2023-02-23T11:55:35.248Z,11.3
2023-02-23T11:57:35.461Z,11.3
2023-02-23T11:59:38.920Z,11.4
2023-02-23T12:01:34.923Z,11.5
2023-02-23T12:03:35.374Z,11.4
2023-02-23T12:05:34.959Z,11.4
2023-02-23T12:07:35.070Z,11.4
2023-02-23T12:09:35.827Z,11.4
2023-02-23T12:11:38.522Z,11.4
2023-02-23T12:13:43.570Z,11.5
2023-02-23T12:15:35.450Z,11.5
2023-02-23T12:17:38.721Z,11.6
2023-02-23T12:19:35.049Z,11.6
2023-02-23T12:21:36.339Z,11.6
2023-02-23T12:23:35.516Z,11.7
2023-02-23T12:25:37.917Z,11.7
2023-02-23T12:27:38.401Z,11.7
2023-02-23T12:29:38.697Z,11.8
2023-02-23T12:31:35.561Z,11.8
2023-02-23T12:33:35.593Z,11.8
2023-02-23T12:35:35.162Z,11.7
2023-02-23T12:37:35.134Z,11.7
2023-02-23T12:39:35.623Z,11.7
2023-02-23T12:41:35.858Z,11.8
2023-02-23T12:43:35.520Z,11.8
2023-02-23T12:45:35.724Z,11.9
2023-02-23T12:47:35.251Z,11.9
2023-02-23T12:49:35.563Z,11.8
2023-02-23T12:51:35.705Z,11.8
2023-02-23T12:53:35.277Z,11.9
2023-02-23T12:55:35.286Z,11.9
2023-02-23T12:57:35.739Z,11.9
2023-02-23T12:59:35.280Z,11.9
2023-02-23T13:01:35.747Z,11.9
2023-02-23T13:05:35.614Z,11.7
2023-02-23T13:07:35.390Z,11.7
2023-02-23T13:09:35.877Z,11.8
2023-02-23T13:13:35.531Z,11.7
2023-02-23T13:15:36.035Z,11.7
2023-02-23T13:17:35.562Z,11.8
2023-02-23T13:19:35.616Z,11.8
2023-02-23T13:21:35.948Z,11.8
2023-02-23T13:23:43.526Z,11.8
2023-02-23T13:25:35.814Z,11.8
2023-02-23T13:27:36.059Z,11.8
2023-02-23T13:29:35.948Z,11.8
2023-02-23T13:31:35.812Z,11.8
2023-02-23T13:35:35.671Z,11.8
2023-02-23T13:37:35.644Z,11.8
2023-02-23T13:39:36.199Z,11.7
2023-02-23T13:41:35.887Z,11.7
2023-02-23T13:43:35.522Z,11.8
2023-02-23T13:45:36.467Z,11.8
2023-02-23T13:47:35.559Z,11.7
2023-02-23T13:49:35.550Z,11.8
2023-02-23T13:51:36.041Z,11.8
2023-02-23T13:53:35.728Z,11.8
2023-02-23T13:57:36.107Z,11.9
2023-02-23T13:59:35.652Z,11.8
2023-02-23T14:01:36.036Z,11.8
2023-02-23T14:03:36.118Z,11.8
2023-02-23T14:05:35.540Z,11.8
2023-02-23T14:07:35.541Z,11.6
2023-02-23T14:09:35.970Z,11.7
2023-02-23T14:11:35.642Z,11.5
2023-02-23T14:13:35.607Z,11.3
2023-02-23T14:17:35.847Z,11.3
2023-02-23T14:19:36.372Z,11.3
2023-02-23T14:21:36.112Z,11.4
2023-02-23T14:23:35.625Z,11.3
2023-02-23T14:25:35.526Z,11.4
2023-02-23T14:27:41.289Z,11.4
2023-02-23T14:29:35.635Z,11.4
2023-02-23T14:31:35.643Z,11.5
2023-02-23T14:33:36.133Z,11.4
2023-02-23T14:35:35.530Z,11.4
2023-02-23T14:37:35.852Z,11.4
2023-02-23T14:39:36.117Z,11.4
2023-02-23T14:41:35.556Z,11.4
2023-02-23T14:43:35.531Z,11.4
2023-02-23T14:45:36.040Z,11.3
2023-02-23T14:47:35.541Z,11.3
2023-02-23T14:49:38.141Z,11.3
2023-02-23T14:51:36.022Z,11.2
2023-02-23T14:53:35.563Z,11.2
2023-02-23T14:55:36.281Z,11.3
2023-02-23T14:57:36.095Z,11.3
2023-02-23T14:59:35.648Z,11.4
2023-02-23T15:01:36.073Z,11.3
2023-02-23T15:03:36.010Z,11.3
2023-02-23T15:05:40.891Z,11.2
2023-02-23T15:09:36.122Z,11.3
2023-02-23T15:11:40.451Z,11.3
2023-02-23T15:13:38.163Z,11.3
2023-02-23T15:15:36.735Z,11.4
2023-02-23T15:17:36.031Z,11.1
2023-02-23T15:19:39.349Z,11
2023-02-23T15:21:45.303Z,11.1
2023-02-23T15:23:35.612Z,11
2023-02-23T15:25:35.522Z,11
2023-02-23T15:27:36.103Z,11
2023-02-23T15:29:42.383Z,10.9
2023-02-23T15:31:35.990Z,11.1
2023-02-23T15:33:46.079Z,11.1
2023-02-23T15:35:35.572Z,10.9
2023-02-23T15:37:38.125Z,10.9
2023-02-23T15:41:40.498Z,10.8
2023-02-23T15:43:35.592Z,10.8
2023-02-23T15:45:42.433Z,10.8
2023-02-23T15:47:35.560Z,10.8
2023-02-23T15:49:43.015Z,10.8
2023-02-23T15:51:36.023Z,10.7
2023-02-23T15:53:36.880Z,10.6
2023-02-23T15:55:39.510Z,10.5
2023-02-23T15:59:38.246Z,10.4
2023-02-23T16:01:35.552Z,10.3
2023-02-23T16:05:41.969Z,10.3
2023-02-23T16:07:35.553Z,10.3
2023-02-23T16:09:36.236Z,10.2
2023-02-23T16:11:43.180Z,10.3
2023-02-23T16:13:38.812Z,10.2
2023-02-23T16:15:38.972Z,10.2
2023-02-23T16:17:35.582Z,10.2
2023-02-23T16:19:36.406Z,10.2
2023-02-23T16:21:36.036Z,10.1
2023-02-23T16:23:35.989Z,10
2023-02-23T16:25:36.895Z,10
2023-02-23T16:29:38.487Z,9.9
2023-02-23T16:31:44.233Z,9.9
2023-02-23T16:35:35.539Z,9.9
2023-02-23T16:37:36.025Z,9.9
2023-02-23T16:41:39.298Z,9.8
2023-02-23T16:43:35.549Z,9.8
2023-02-23T16:45:46.478Z,9.8
2023-02-23T16:49:38.420Z,9.7
2023-02-23T16:51:36.048Z,9.7
2023-02-23T16:53:45.645Z,9.7
2023-02-23T16:55:35.567Z,9.7
2023-02-23T16:57:38.623Z,9.7
2023-02-23T17:01:36.992Z,9.6
2023-02-23T17:05:38.624Z,9.6
2023-02-23T17:11:48.909Z,9.5
2023-02-23T17:13:52.199Z,9.5
2023-02-23T17:17:51.594Z,9.4
2023-02-23T17:19:50.657Z,9.4
2023-02-23T17:21:51.402Z,9.5
2023-02-23T17:23:51.345Z,9.4
2023-02-23T17:25:51.728Z,9.2
2023-02-23T17:27:53.177Z,9.1
2023-02-23T17:29:49.651Z,9.1
2023-02-23T17:31:50.935Z,9.1
2023-02-23T17:33:53.198Z,9.1
2023-02-23T17:35:49.245Z,9.1
2023-02-23T17:37:52.256Z,9
2023-02-23T17:41:50.745Z,9
2023-02-23T17:43:51.686Z,8.9
2023-02-23T17:45:53.485Z,8.8
2023-02-23T17:47:50.584Z,8.8
2023-02-23T17:49:49.316Z,8.8
2023-02-23T17:51:53.203Z,8.9
2023-02-23T17:53:48.961Z,8.8
2023-02-23T17:55:49.834Z,8.8
2023-02-23T17:59:52.939Z,8.9
2023-02-23T18:01:52.527Z,8.9
2023-02-23T18:03:53.219Z,8.8
2023-02-23T18:05:50.247Z,8.8
2023-02-23T18:07:49.013Z,8.8
2023-02-23T18:09:53.353Z,8.8
2023-02-23T18:11:51.177Z,8.8
2023-02-23T18:13:48.843Z,8.8
2023-02-23T18:17:52.707Z,8.5
2023-02-23T18:19:49.858Z,8.5
2023-02-23T18:23:48.520Z,8.4
2023-02-23T18:25:48.870Z,8.4
2023-02-23T18:27:53.369Z,8.2
2023-02-23T18:29:49.112Z,8.3
2023-02-23T18:31:52.801Z,8.3
2023-02-23T18:35:52.096Z,8.3
2023-02-23T18:37:53.236Z,8.3
2023-02-23T18:41:50.747Z,8.2
2023-02-23T18:43:52.775Z,8.2
2023-02-23T18:45:53.372Z,7.9
2023-02-23T18:47:50.468Z,7.9
2023-02-23T18:49:51.723Z,8.1
2023-02-23T18:53:50.628Z,8.2
2023-02-23T18:55:49.283Z,8.2
2023-02-23T18:57:53.420Z,8.2
2023-02-23T18:59:50.768Z,8.1
2023-02-23T19:01:51.744Z,8.3
2023-02-23T19:03:53.307Z,8.2
2023-02-23T19:05:49.745Z,8.3
2023-02-23T19:07:47.545Z,8.2
2023-02-23T19:09:53.481Z,8.4
2023-02-23T19:11:48.896Z,8.4
2023-02-23T19:13:49.002Z,8.4
2023-02-23T19:17:50.313Z,8.4
2023-02-23T19:19:49.305Z,8.2
2023-02-23T19:21:53.565Z,8.2
2023-02-23T19:23:51.422Z,8.2
2023-02-23T19:25:49.412Z,8.2
2023-02-23T19:29:52.217Z,8.1
2023-02-23T19:31:50.933Z,8.1
2023-02-23T19:33:53.164Z,8.2
2023-02-23T19:35:52.217Z,8.1
2023-02-23T19:37:52.274Z,8
2023-02-23T19:41:52.409Z,8
2023-02-23T19:43:48.885Z,7.9
2023-02-23T19:45:52.270Z,7.9
2023-02-23T19:47:50.308Z,8
2023-02-23T19:49:51.668Z,8.1
2023-02-23T19:53:50.747Z,8.1
2023-02-23T19:55:51.573Z,8.2
2023-02-23T19:57:53.330Z,8.2
2023-02-23T19:59:50.481Z,8.2
2023-02-23T20:01:50.668Z,8.2
2023-02-23T20:03:52.964Z,8.1
2023-02-23T20:05:50.281Z,8.1
2023-02-23T20:07:50.597Z,8.2
2023-02-23T20:11:53.027Z,8.1
2023-02-23T20:13:49.837Z,7.9
2023-02-23T20:17:47.176Z,8.1
2023-02-23T20:19:49.921Z,8.1
2023-02-23T20:21:52.380Z,8.1
2023-02-23T20:23:49.278Z,8
2023-02-23T20:25:52.843Z,8
2023-02-23T20:27:53.104Z,8
2023-02-23T20:29:52.584Z,8
2023-02-23T20:31:48.093Z,8.1
2023-02-23T20:33:53.056Z,8.1
2023-02-23T20:35:50.506Z,8.1
2023-02-23T20:37:49.579Z,7.9
2023-02-23T20:39:53.161Z,7.9
2023-02-23T20:41:49.912Z,7.8
2023-02-23T20:43:52.972Z,7.8
2023-02-23T20:47:52.673Z,7.9
2023-02-23T20:49:48.902Z,8
2023-02-23T20:53:51.536Z,7.9
2023-02-23T20:55:49.236Z,7.9
2023-02-23T20:57:53.550Z,7.9
2023-02-23T20:59:50.237Z,8
2023-02-23T21:01:52.091Z,7.9
2023-02-23T21:05:49.659Z,7.9
2023-02-23T21:07:49.861Z,7.8
2023-02-23T21:11:51.680Z,7.9
2023-02-23T21:13:47.928Z,7.8
2023-02-23T21:17:48.921Z,7.8
2023-02-23T21:21:53.931Z,7.8
2023-02-23T21:23:51.601Z,7.9
2023-02-23T21:25:51.226Z,7.9
2023-02-23T21:29:50.801Z,7.9
2023-02-23T21:31:49.002Z,7.8
2023-02-23T21:35:49.207Z,7.8
2023-02-23T21:37:49.129Z,7.7
2023-02-23T21:41:51.084Z,7.8
2023-02-23T21:43:52.132Z,7.8
2023-02-23T21:47:48.427Z,7.7
2023-02-23T21:49:51.314Z,7.7
2023-02-23T21:51:53.486Z,7.6
2023-02-23T21:53:52.554Z,7.5
2023-02-23T21:55:48.884Z,7.6
2023-02-23T21:57:53.201Z,7.5
2023-02-23T21:59:53.148Z,7.4
2023-02-23T22:01:52.456Z,7.5
2023-02-23T22:03:52.305Z,7.4
2023-02-23T22:05:48.285Z,7.4
2023-02-23T22:07:50.224Z,7.4
2023-02-23T22:09:53.184Z,7.5
2023-02-23T22:11:50.501Z,7.6
2023-02-23T22:15:53.180Z,7.6
2023-02-23T22:17:52.524Z,7.5
2023-02-23T22:19:49.863Z,7.4
2023-02-23T22:21:53.337Z,7.5
2023-02-23T22:23:52.147Z,7.4
2023-02-23T22:25:51.607Z,7.5
2023-02-23T22:29:51.292Z,7.5
2023-02-23T22:31:50.948Z,7.5
2023-02-23T22:35:49.195Z,7.7
2023-02-23T22:37:51.050Z,7.7
2023-02-23T22:39:53.195Z,7.6
2023-02-23T22:41:52.266Z,7.6
2023-02-23T22:43:49.442Z,7.7
2023-02-23T22:47:51.201Z,7.6
2023-02-23T22:49:52.273Z,7.6
2023-02-23T22:51:53.305Z,7.6
2023-02-23T22:53:48.935Z,7.4
2023-02-23T22:55:50.217Z,7.4
2023-02-23T22:57:53.181Z,7.5
2023-02-23T22:59:52.579Z,7.6
2023-02-23T23:01:51.666Z,7.5
2023-02-23T23:03:52.656Z,7.6
2023-02-23T23:05:50.322Z,7.5
2023-02-23T23:07:52.674Z,7.5
2023-02-23T23:11:50.389Z,7.5
2023-02-23T23:13:49.869Z,7.4
2023-02-23T23:15:55.201Z,7.5
2023-02-23T23:17:51.697Z,7.4
2023-02-23T23:19:49.968Z,7.4
2023-02-23T23:23:51.738Z,7.4
2023-02-23T23:25:52.587Z,7.4
2023-02-23T23:29:47.548Z,7.5
2023-02-23T23:31:50.943Z,7.5
2023-02-23T23:33:53.719Z,7.5
2023-02-23T23:35:50.784Z,7.6
2023-02-23T23:37:50.308Z,7.5
2023-02-23T23:41:49.283Z,7.3
2023-02-23T23:43:47.516Z,7.3
2023-02-23T23:47:50.648Z,7.2
2023-02-23T23:49:51.082Z,7.3
2023-02-23T23:53:50.314Z,7.3
2023-02-23T23:55:49.013Z,7.3
2023-02-23T23:57:53.455Z,7.3
2023-02-23T23:59:51.303Z,7.3
